Time;durP1;ratioP1;P1;durP2;ratioP2;P2;SDS_P1;SDS_P2;PMS_P1;PMS_P2;Temp;Humidity;BMP_temperature;BMP_pressure;BME280_temperature;BME280_humidity;BME280_pressure;Samples;Min_cycle;Max_cycle;Signal;HPM_P1;HPM_P2
2022/01/02 00:28:36;;;;;;;58.30;52.38;;;;;;;10.94;89.30;101601.63;5077663;28;20033;-90
2022/01/02 00:31:10;;;;;;;58.25;52.28;;;;;;;10.79;89.27;101583.88;5045557;28;20031;-91
2022/01/02 00:33:37;;;;;;;58.42;52.50;;;;;;;10.76;88.70;101555.63;5046010;28;20134;-89
2022/01/02 00:36:04;;;;;;;59.05;52.67;;;;;;;10.66;89.43;101550.59;5044463;28;20013;-88
2022/01/02 00:38:40;;;;;;;57.25;51.55;;;;;;;10.78;89.10;101566.72;5044852;28;20017;-90
2022/01/02 00:41:09;;;;;;;57.15;51.40;;;;;;;10.67;89.49;101556.59;5044711;28;20013;-91
2022/01/02 00:43:55;;;;;;;58.58;52.58;;;;;;;10.74;89.15;101567.63;5063329;28;20031;-92
2022/01/02 00:49:09;;;;;;;57.78;51.78;;;;;;;10.75;89.46;101553.91;5295438;22;20056;-91
2022/01/02 00:52:09;;;;;;;57.97;52.17;;;;;;;10.85;89.56;101570.91;5079017;28;20111;-92
2022/01/02 00:54:53;;;;;;;60.15;53.47;;;;;;;10.74;90.44;101547.03;5091854;28;20028;-90
2022/01/02 01:03:38;;;;;;;76.82;58.22;;;;;;;10.51;91.48;101517.41;5224917;22;20082;-91
2022/01/02 01:06:41;;;;;;;;;;;;;;;;;;;;;
2022/01/02 02:50:55;;;;;;;57.72;52.13;;;;;;;9.47;100.00;101438.31;1709067;23;20326;-92
2022/01/02 02:53:20;;;;;;;60.70;54.47;;;;;;;9.50;100.00;101440.00;4961514;28;20027;-91
2022/01/02 02:55:55;;;;;;;59.07;53.07;;;;;;;9.48;100.00;101445.16;4963549;28;20023;-89
2022/01/02 03:01:09;;;;;;;59.75;53.55;;;;;;;9.40;100.00;101428.97;4967995;28;20061;-90
2022/01/02 03:03:47;;;;;;;62.33;53.50;;;;;;;9.27;100.00;101412.88;4956183;28;20035;-90
2022/01/02 03:06:43;;;;;;;59.63;53.30;;;;;;;9.45;100.00;101414.38;4963261;28;20018;-89
2022/01/02 03:09:11;;;;;;;58.65;52.85;;;;;;;9.35;100.00;101400.78;4966361;28;20118;-89
2022/01/02 03:11:52;;;;;;;59.70;53.42;;;;;;;9.50;100.00;101410.03;4953488;28;20034;-90
2022/01/02 03:14:20;;;;;;;60.30;54.13;;;;;;;9.32;100.00;101389.72;4955773;28;20035;-90
2022/01/02 03:17:06;;;;;;;59.42;53.10;;;;;;;9.37;100.00;101387.94;4949924;28;20027;-91
2022/01/02 03:19:35;;;;;;;58.83;52.92;;;;;;;9.40;100.00;101387.91;4958864;28;20061;-90
2022/01/02 03:22:15;;;;;;;59.35;53.30;;;;;;;9.48;100.00;101386.09;4947294;29;20062;-90
2022/01/02 03:24:41;;;;;;;60.15;53.72;;;;;;;9.51;100.00;101391.16;4954370;29;20031;-89
2022/01/02 03:27:24;;;;;;;60.60;54.17;;;;;;;9.53;100.00;101393.72;4932139;29;20039;-90
2022/01/02 03:30:02;;;;;;;59.95;53.95;;;;;;;9.35;100.00;101375.13;4939495;29;20020;-89
2022/01/02 03:32:52;;;;;;;61.35;54.95;;;;;;;9.29;100.00;101353.81;4946810;28;20035;-88
2022/01/02 03:35:18;;;;;;;60.10;53.92;;;;;;;9.47;100.00;101389.53;4958432;29;20027;-89
2022/01/02 03:37:46;;;;;;;60.55;54.22;;;;;;;9.40;100.00;101368.22;4959378;28;20086;-88
2022/01/02 03:40:24;;;;;;;61.47;54.70;;;;;;;9.25;100.00;101338.44;4957325;29;20015;-91
2022/01/02 03:42:53;;;;;;;60.28;53.83;;;;;;;9.26;100.00;101334.19;4938701;29;20031;-90
2022/01/02 03:45:37;;;;;;;62.00;55.13;;;;;;;9.45;100.00;101370.72;4942929;28;20033;-90
2022/01/02 03:48:06;;;;;;;61.05;54.42;;;;;;;9.13;100.00;101315.53;4930127;29;20023;-90
2022/01/02 03:50:32;;;;;;;60.90;54.47;;;;;;;9.41;100.00;101349.34;4949449;29;20034;-91
2022/01/02 03:53:10;;;;;;;60.25;54.00;;;;;;;9.43;100.00;101346.78;4959209;29;20043;-90
2022/01/02 03:55:35;;;;;;;60.88;53.78;;;;;;;9.16;100.00;101297.53;4951450;28;20069;-91
2022/01/02 03:58:03;;;;;;;60.25;54.30;;;;;;;9.36;100.00;101342.59;4951698;29;20027;-90
2022/01/02 04:00:50;;;;;;;60.90;54.42;;;;;;;9.37;100.00;101365.69;4953917;29;20023;-90
2022/01/02 04:03:19;;;;;;;60.20;54.17;;;;;;;9.23;100.00;101313.69;4953252;28;20436;-91
2022/01/02 04:05:57;;;;;;;61.80;55.25;;;;;;;9.37;100.00;101341.72;4948799;29;20051;-93
2022/01/02 04:08:22;;;;;;;62.70;55.33;;;;;;;9.11;100.00;101294.16;4930302;29;20099;-90
2022/01/02 04:11:44;;;;;;;;;;;;;;;;;;;;;
2022/01/02 04:14:16;;;;;;;64.15;56.60;;;;;;;9.25;100.00;101281.13;4962198;28;20058;-91
2022/01/02 04:16:56;;;;;;;75.65;57.83;;;;;;;9.04;100.00;101241.22;4946994;29;20023;-89
2022/01/02 04:19:35;;;;;;;62.67;55.40;;;;;;;9.44;100.00;101297.13;4943574;29;20125;-88
2022/01/02 04:22:03;;;;;;;63.13;56.47;;;;;;;9.16;100.00;101261.59;4935885;29;20102;-88
2022/01/02 04:24:35;;;;;;;61.38;54.88;;;;;;;9.43;100.00;101280.88;4935067;29;20547;-89
2022/01/02 04:27:03;;;;;;;62.97;56.15;;;;;;;9.36;100.00;101268.16;4933015;29;20035;-89
2022/01/02 04:29:32;;;;;;;62.38;55.80;;;;;;;9.23;100.00;101258.06;4947014;28;20031;-89
2022/01/02 04:32:07;;;;;;;66.80;56.88;;;;;;;9.14;100.00;101253.03;4947918;28;20034;-88
2022/01/02 04:34:33;;;;;;;61.78;55.30;;;;;;;9.04;100.00;101231.81;4947968;29;20008;-90
2022/01/02 04:36:58;;;;;;;65.15;57.97;;;;;;;9.26;100.00;101259.75;4946609;28;20046;-90
2022/01/02 04:39:26;;;;;;;62.30;55.77;;;;;;;9.16;100.00;101245.31;4942798;29;20035;-90
2022/01/02 04:41:52;;;;;;;63.78;56.78;;;;;;;9.16;100.00;101235.06;4931384;29;20265;-90
2022/01/02 04:44:20;;;;;;;66.63;57.53;;;;;;;8.89;100.00;101202.09;4947180;29;20390;-88
2022/01/02 04:46:49;;;;;;;63.30;56.45;;;;;;;9.32;100.00;101233.13;4934378;28;20027;-90
2022/01/02 04:49:15;;;;;;;63.35;56.47;;;;;;;9.22;100.00;101215.28;4936302;29;20031;-89
2022/01/02 04:51:42;;;;;;;62.97;56.35;;;;;;;9.04;100.00;101201.00;4936985;29;20062;-88
2022/01/02 04:54:08;;;;;;;65.25;58.13;;;;;;;9.25;100.00;101229.78;4942231;29;20528;-88
2022/01/02 04:56:37;;;;;;;68.78;59.40;;;;;;;9.04;100.00;101202.75;4944518;28;20011;-89
2022/01/02 04:59:06;;;;;;;69.22;57.90;;;;;;;9.03;100.00;101203.59;4946867;23;20044;-89
2022/01/02 05:01:40;;;;;;;65.80;58.42;;;;;;;9.17;100.00;101211.09;4945116;28;20036;-91
2022/01/02 05:04:32;;;;;;;64.45;57.53;;;;;;;9.30;100.00;101222.03;4945592;28;20027;-88
2022/01/02 05:07:00;;;;;;;64.53;57.95;;;;;;;9.25;100.00;101209.25;4939653;29;20040;-88
2022/01/02 05:09:36;;;;;;;65.15;57.45;;;;;;;9.05;100.00;101171.06;4940386;29;20036;-90
2022/01/02 05:12:12;;;;;;;66.30;58.38;;;;;;;9.16;100.00;101176.91;4950213;28;20032;-89
2022/01/02 05:14:55;;;;;;;65.15;58.08;;;;;;;9.29;100.00;101217.75;4945796;28;20023;-90
2022/01/02 05:17:39;;;;;;;63.42;56.75;;;;;;;9.12;100.00;101176.97;4937012;29;20241;-91
2022/01/02 05:20:08;;;;;;;65.70;58.08;;;;;;;9.12;100.00;101170.09;4930247;29;20035;-90
2022/01/02 05:22:36;;;;;;;65.13;57.42;;;;;;;9.21;100.00;101187.94;4924531;29;20051;-91
2022/01/02 05:25:03;;;;;;;65.82;58.67;;;;;;;9.02;100.00;101148.00;4939941;29;20024;-91
2022/01/02 05:27:28;;;;;;;;;;;;;;;9.25;100.00;101184.44;4937422;29;20091;-92
2022/01/02 05:30:18;;;;;;;68.15;58.35;;;;;;;9.02;100.00;101156.56;4922251;29;19922;-90
2022/01/02 05:32:50;;;;;;;72.28;60.30;;;;;;;9.28;100.00;101187.84;4921017;29;20047;-92
2022/01/02 05:35:27;;;;;;;65.18;58.13;;;;;;;9.28;100.00;101172.44;4921171;29;20567;-91
2022/01/02 05:45:05;;;;;;;65.38;57.75;;;;;;;9.15;100.00;101136.69;4897613;29;20045;-90
2022/01/02 05:55:17;;;;;;;66.97;59.63;;;;;;;9.20;100.00;101114.34;4924981;29;20056;-91
2022/01/02 05:59:00;;;;;;;;;;;;;;;;;;;;;
2022/01/02 06:02:20;;;;;;;67.18;58.65;;;;;;;9.40;100.00;101111.47;4876062;29;20119;-93
2022/01/02 06:05:51;;;;;;;68.78;59.05;;;;;;;9.41;100.00;101112.28;4852336;29;20045;-93
2022/01/02 06:23:42;;;;;;;67.03;58.13;;;;;;;9.38;100.00;101086.69;4924314;29;20067;-90
2022/01/02 06:26:07;;;;;;;63.25;56.35;;;;;;;9.35;100.00;101071.31;4928553;29;20024;-90
2022/01/02 06:28:38;;;;;;;69.50;58.90;;;;;;;9.42;100.00;101098.59;4921812;29;20016;-89
2022/01/02 06:31:12;;;;;;;68.05;59.05;;;;;;;9.45;100.00;101093.41;4927397;28;20027;-91
2022/01/02 06:33:39;;;;;;;65.32;58.35;;;;;;;9.31;100.00;101064.56;4923878;29;20031;-91
2022/01/02 06:36:04;;;;;;;65.25;58.17;;;;;;;9.46;100.00;101089.09;4917786;29;20039;-91
2022/01/02 06:38:30;;;;;;;66.53;58.75;;;;;;;9.54;100.00;101095.78;4915733;29;20678;-91
2022/01/02 06:40:55;;;;;;;67.83;58.63;;;;;;;9.51;100.00;101093.25;4916110;29;20058;-91
2022/01/02 06:43:21;;;;;;;66.70;58.70;;;;;;;9.34;100.00;101075.63;4915696;29;20023;-90
2022/01/02 06:45:49;;;;;;;64.53;57.70;;;;;;;9.44;100.00;101081.44;4918044;29;20043;-90
2022/01/02 06:48:39;;;;;;;66.40;59.15;;;;;;;9.54;100.00;101098.34;4919929;29;20274;-92
2022/01/02 06:51:07;;;;;;;67.55;59.15;;;;;;;9.37;100.00;101079.84;4917943;29;20042;-92
2022/01/02 06:57:23;;;;;;;64.55;57.60;;;;;;;9.21;100.00;101064.72;4949413;29;20034;-91
2022/01/02 06:59:53;;;;;;;64.57;57.70;;;;;;;9.32;100.00;101086.78;4932316;29;20023;-92
2022/01/02 07:02:18;;;;;;;64.82;57.90;;;;;;;9.33;100.00;101084.19;4922156;29;20031;-89
2022/01/02 07:04:43;;;;;;;66.73;59.63;;;;;;;9.22;100.00;101060.44;4923587;29;20516;-87
2022/01/02 07:07:09;;;;;;;67.67;59.30;;;;;;;9.54;100.00;101111.19;4926489;28;20012;-90
2022/01/02 07:16:19;;;;;;;68.82;61.08;;;;;;;9.52;100.00;101092.41;4931160;29;20067;-93
2022/01/02 07:18:54;;;;;;;64.13;57.47;;;;;;;9.42;100.00;101053.22;4916351;29;20035;-90
2022/01/02 07:24:51;;;;;;;66.18;58.28;;;;;;;9.36;100.00;101042.22;4877800;29;20064;-90
2022/01/02 07:27:21;;;;;;;65.65;58.45;;;;;;;9.49;100.00;101058.25;4915412;29;20095;-89
2022/01/02 07:29:55;;;;;;;66.40;58.92;;;;;;;9.35;100.00;101037.94;4913428;29;20024;-91
2022/01/02 07:32:23;;;;;;;66.95;59.70;;;;;;;9.40;100.00;101041.28;5003186;23;20032;-87
2022/01/02 07:34:48;;;;;;;64.43;57.58;;;;;;;9.61;100.00;101076.81;4917675;29;20035;-86
2022/01/02 07:37:15;;;;;;;62.90;56.57;;;;;;;9.54;100.00;101052.13;4909482;29;20032;-87
2022/01/02 07:39:43;;;;;;;;;;;;;;;9.69;100.00;101057.84;4928086;29;20031;-88
2022/01/02 07:42:09;;;;;;;65.65;58.58;;;;;;;9.67;100.00;101067.31;4915023;29;19982;-88
2022/01/02 07:44:36;;;;;;;63.95;57.10;;;;;;;9.70;100.00;101051.84;4918610;29;20043;-88
2022/01/02 07:47:03;;;;;;;63.28;56.22;;;;;;;9.71;100.00;101041.53;4916950;29;20055;-88
2022/01/02 07:49:28;;;;;;;66.15;58.60;;;;;;;9.72;100.00;101039.78;4894170;29;20107;-88
2022/01/02 07:51:53;;;;;;;65.07;57.93;;;;;;;9.62;100.00;101022.03;4904433;29;20091;-88
2022/01/02 07:54:19;;;;;;;65.70;57.57;;;;;;;9.76;100.00;101042.28;4910737;29;20052;-88
2022/01/02 07:56:44;;;;;;;64.97;57.40;;;;;;;9.78;100.00;101034.53;4911892;29;20008;-89
2022/01/02 07:59:10;;;;;;;65.30;58.27;;;;;;;9.84;100.00;101034.41;4911874;29;20022;-87
2022/01/02 08:01:35;;;;;;;64.63;57.67;;;;;;;9.86;100.00;101036.94;4911606;29;20017;-87
2022/01/02 08:04:00;;;;;;;64.97;58.30;;;;;;;9.65;100.00;101002.28;4911376;29;20270;-88
2022/01/02 08:06:26;;;;;;;65.23;58.40;;;;;;;9.76;100.00;101013.19;4927091;29;20020;-88
2022/01/02 08:08:51;;;;;;;64.10;57.53;;;;;;;9.84;100.00;101024.13;4936848;29;20050;-86
2022/01/02 08:11:17;;;;;;;64.80;57.43;;;;;;;9.73;100.00;101001.22;4930144;29;20028;-85
2022/01/02 08:13:45;;;;;;;67.18;58.33;;;;;;;9.71;100.00;100995.28;4930348;29;20035;-86
2022/01/02 08:16:12;;;;;;;67.00;59.75;;;;;;;9.83;100.00;101011.31;4938630;29;20040;-85
2022/01/02 08:18:37;;;;;;;;;;;;;;;9.85;100.00;101013.00;4909331;29;20016;-84
2022/01/02 08:21:02;;;;;;;64.75;57.22;;;;;;;9.78;100.00;100984.03;4926614;29;20402;-87
2022/01/02 08:23:28;;;;;;;65.17;55.90;;;;;;;9.78;100.00;100988.28;4911333;29;20028;-87
2022/01/02 08:25:53;;;;;;;63.07;56.50;;;;;;;9.88;100.00;100982.09;4911015;29;20024;-87
2022/01/02 08:28:19;;;;;;;61.17;54.80;;;;;;;9.89;100.00;100986.34;4941344;29;20015;-85
2022/01/02 08:30:45;;;;;;;66.85;56.92;;;;;;;9.95;100.00;100985.38;4920892;29;20019;-86
2022/01/02 08:33:11;;;;;;;62.45;55.90;;;;;;;10.01;100.00;100979.28;4907288;29;20025;-88
2022/01/02 08:35:37;;;;;;;63.57;56.53;;;;;;;10.03;100.00;100978.34;4936866;29;20043;-86
2022/01/02 08:38:03;;;;;;;64.07;57.28;;;;;;;9.88;100.00;100932.41;4916477;29;20275;-87
2022/01/02 08:40:28;;;;;;;63.00;56.13;;;;;;;9.94;100.00;100943.41;4912140;29;20044;-88
2022/01/02 08:42:53;;;;;;;62.40;55.73;;;;;;;10.01;100.00;100945.84;4895305;29;20036;-87
2022/01/02 08:45:19;;;;;;;62.87;56.27;;;;;;;9.83;100.00;100929.13;4894363;29;20152;-87
2022/01/02 08:47:44;;;;;;;65.70;56.30;;;;;;;9.89;100.00;100922.09;4902310;29;20024;-87
2022/01/02 08:50:10;;;;;;;61.47;55.03;;;;;;;10.05;100.00;100940.59;4893149;29;20036;-87
2022/01/02 08:52:35;;;;;;;61.70;54.87;;;;;;;10.09;100.00;100931.09;4892621;29;20501;-86
2022/01/02 08:55:06;;;;;;;61.73;55.27;;;;;;;10.12;100.00;100923.31;4894878;29;20031;-88
2022/01/02 08:57:34;;;;;;;65.43;55.95;;;;;;;10.19;100.00;100917.13;4904356;29;20032;-88
2022/01/02 09:00:00;;;;;;;61.28;54.72;;;;;;;9.85;100.00;100848.56;4898784;29;20028;-87
2022/01/02 09:02:25;;;;;;;61.60;54.77;;;;;;;9.95;100.00;100855.16;4898742;29;20027;-87
2022/01/02 09:04:53;;;;;;;65.60;54.70;;;;;;;10.28;100.00;100898.91;4901971;29;20087;-89
2022/01/02 09:07:21;;;;;;;64.78;55.35;;;;;;;10.10;100.00;100871.94;4895411;29;20103;-88
2022/01/02 09:10:00;;;;;;;60.75;54.30;;;;;;;10.31;100.00;100891.13;4892165;29;20032;-88
2022/01/02 09:12:26;;;;;;;59.50;53.28;;;;;;;10.13;100.00;100860.72;4915417;29;20027;-87
2022/01/02 09:14:51;;;;;;;59.50;53.20;;;;;;;10.36;100.00;100879.94;4911884;29;20039;-87
2022/01/02 09:17:20;;;;;;;62.38;54.30;;;;;;;10.37;100.00;100877.28;4913068;29;20028;-88
2022/01/02 09:19:46;;;;;;;59.85;53.95;;;;;;;10.02;100.00;100816.47;4901120;29;20032;-87
2022/01/02 09:22:12;;;;;;;59.42;53.40;;;;;;;10.07;100.00;100817.19;4897191;29;20482;-87
2022/01/02 09:24:37;;;;;;;60.23;54.00;;;;;;;10.18;100.00;100833.22;4908478;29;20028;-87
2022/01/02 09:27:06;;;;;;;60.75;53.42;;;;;;;10.21;100.00;100833.09;4904240;29;20044;-88
2022/01/02 09:29:36;;;;;;;59.80;53.63;;;;;;;10.31;100.00;100819.13;4903140;29;20040;-88
2022/01/02 09:32:35;;;;;;;67.93;56.75;;;;;;;10.50;100.00;100854.69;5019964;23;20082;-87
2022/01/02 09:35:06;;;;;;;58.88;52.83;;;;;;;10.47;100.00;100853.03;4926363;29;20043;-88
2022/01/02 09:37:31;;;;;;;58.00;52.20;;;;;;;10.34;100.00;100810.53;4907561;29;20475;-88
2022/01/02 09:39:57;;;;;;;58.20;52.00;;;;;;;10.20;100.00;100780.03;4892816;29;20028;-88
2022/01/02 09:42:22;;;;;;;57.80;52.08;;;;;;;10.70;100.00;100826.69;4904692;29;20086;-88
2022/01/02 09:44:48;;;;;;;57.87;52.07;;;;;;;10.68;100.00;100825.06;4911868;29;20063;-89
2022/01/02 09:47:19;;;;;;;63.13;55.57;;;;;;;10.53;100.00;100801.44;4927360;29;20262;-89
2022/01/02 09:49:46;;;;;;;58.95;52.75;;;;;;;10.33;100.00;100770.28;4915459;29;20285;-87
2022/01/02 09:52:13;;;;;;;57.70;51.47;;;;;;;10.75;100.00;100818.00;4916857;29;20481;-87
2022/01/02 09:54:42;;;;;;;58.33;52.50;;;;;;;10.61;100.00;100798.66;4912167;29;20035;-88
2022/01/02 09:57:08;;;;;;;57.70;51.97;;;;;;;10.46;100.00;100769.06;4927004;29;20023;-87
2022/01/02 09:59:33;;;;;;;57.87;51.73;;;;;;;10.53;100.00;100768.00;4911674;29;20375;-88
2022/01/02 10:02:10;;;;;;;57.15;51.72;;;;;;;10.58;100.00;100760.16;4933341;29;20293;-88
2022/01/02 10:04:40;;;;;;;58.53;52.20;;;;;;;10.54;100.00;100748.28;4913244;29;20079;-88
2022/01/02 10:07:31;;;;;;;57.72;51.95;;;;;;;10.58;100.00;100756.72;4928720;29;20020;-88
2022/01/02 10:10:23;;;;;;;58.60;52.40;;;;;;;10.78;100.00;100771.63;4929677;29;20032;-87
2022/01/02 10:12:54;;;;;;;58.45;52.42;;;;;;;10.78;100.00;100777.59;4939196;29;20095;-87
2022/01/02 10:15:26;;;;;;;57.60;51.67;;;;;;;10.80;100.00;100777.53;4920199;29;20482;-88
2022/01/02 10:18:03;;;;;;;58.17;52.00;;;;;;;10.75;100.00;100772.53;4916410;29;20058;-88
2022/01/02 10:20:31;;;;;;;58.55;52.70;;;;;;;10.65;100.00;100746.22;4940529;29;20099;-88
2022/01/02 10:23:10;;;;;;;57.92;52.08;;;;;;;10.78;100.00;100757.00;4938325;29;20024;-88
2022/01/02 10:25:47;;;;;;;59.05;52.85;;;;;;;10.79;100.00;100757.88;4915810;29;20032;-88
2022/01/02 10:28:26;;;;;;;58.78;52.38;;;;;;;10.59;100.00;100715.53;4930932;29;20509;-89
2022/01/02 10:30:54;;;;;;;57.45;51.90;;;;;;;10.70;100.00;100741.78;4930023;29;20028;-87
2022/01/02 10:33:25;;;;;;;59.22;53.20;;;;;;;10.35;100.00;100683.66;4910667;29;20074;-87
2022/01/02 10:35:59;;;;;;;58.65;52.80;;;;;;;10.62;100.00;100735.19;4912725;29;20024;-88
2022/01/02 10:38:34;;;;;;;58.42;52.60;;;;;;;10.52;100.00;100722.59;4910639;29;20028;-87
2022/01/02 10:40:59;;;;;;;57.47;51.80;;;;;;;10.37;100.00;100691.31;4912815;29;20020;-88
2022/01/02 10:43:29;;;;;;;58.33;52.45;;;;;;;10.67;100.00;100738.47;4912477;29;20485;-88
2022/01/02 10:45:56;;;;;;;58.17;52.17;;;;;;;10.73;100.00;100722.03;4914557;29;20039;-88
2022/01/02 10:48:40;;;;;;;58.85;53.08;;;;;;;10.64;100.00;100708.56;4929490;29;20458;-87
2022/01/02 10:51:19;;;;;;;58.30;52.67;;;;;;;10.70;100.00;100718.63;4927048;29;20031;-88
2022/01/02 10:53:53;;;;;;;59.17;52.88;;;;;;;10.70;100.00;100717.81;4912522;29;20572;-88
2022/01/02 10:56:27;;;;;;;59.53;52.67;;;;;;;10.53;100.00;100688.28;4929677;29;20039;-87
2022/01/02 10:59:00;;;;;;;57.92;52.25;;;;;;;10.56;100.00;100679.63;4927133;29;20035;-87
2022/01/02 11:01:48;;;;;;;59.13;52.97;;;;;;;10.73;100.00;100714.31;4914738;29;20039;-87
2022/01/02 11:04:30;;;;;;;60.00;53.70;;;;;;;10.66;100.00;100711.91;4943554;29;20032;-87
2022/01/02 11:07:22;;;;;;;57.72;52.08;;;;;;;10.75;100.00;100704.81;4943501;29;20150;-88
2022/01/02 11:09:56;;;;;;;59.22;53.30;;;;;;;10.71;100.00;100710.03;4917514;29;20024;-89
2022/01/02 11:12:25;;;;;;;59.38;52.97;;;;;;;10.61;100.00;100667.47;4915973;29;20028;-88
2022/01/02 11:14:51;;;;;;;60.55;54.28;;;;;;;10.68;100.00;100668.97;4944621;29;20024;-87
2022/01/02 11:17:24;;;;;;;57.50;51.85;;;;;;;10.72;100.00;100685.16;4925701;29;20044;-87
2022/01/02 11:19:50;;;;;;;58.55;52.53;;;;;;;10.66;100.00;100678.47;4932542;29;20035;-85
2022/01/02 11:22:26;;;;;;;60.08;53.58;;;;;;;10.73;100.00;100686.00;4928564;29;20028;-87
2022/01/02 11:25:06;;;;;;;73.10;55.40;;;;;;;10.70;100.00;100677.47;4930035;28;20083;-86
2022/01/02 11:27:54;;;;;;;58.88;52.88;;;;;;;10.69;100.00;100664.69;4929868;29;20035;-87
2022/01/02 11:30:37;;;;;;;59.95;53.75;;;;;;;10.60;100.00;100650.34;4945340;29;20052;-90
2022/01/02 11:33:13;;;;;;;62.65;55.20;;;;;;;10.52;100.00;100642.03;4929784;29;20035;-87
2022/01/02 11:35:45;;;;;;;60.53;53.97;;;;;;;10.61;100.00;100646.03;4929609;29;20032;-90
2022/01/02 11:38:11;;;;;;;60.65;54.20;;;;;;;10.55;100.00;100652.22;4920598;29;20039;-88
2022/01/02 11:40:58;;;;;;;59.97;53.63;;;;;;;10.53;100.00;100638.59;4917676;29;20126;-88
2022/01/02 11:43:46;;;;;;;60.28;54.05;;;;;;;10.46;100.00;100637.91;4915547;29;20047;-88
2022/01/02 11:46:38;;;;;;;59.35;53.17;;;;;;;10.47;100.00;100628.47;4931052;29;20043;-88
2022/01/02 11:49:16;;;;;;;60.10;54.00;;;;;;;10.46;100.00;100627.63;4910670;29;20012;-88
2022/01/02 11:51:47;;;;;;;60.70;54.10;;;;;;;10.44;100.00;100623.44;4971790;28;20063;-88
2022/01/02 11:54:31;;;;;;;59.97;53.65;;;;;;;10.44;100.00;100613.97;4956643;28;20022;-89
2022/01/02 11:56:58;;;;;;;62.58;55.00;;;;;;;10.43;100.00;100607.13;4960809;29;20036;-89
2022/01/02 11:59:38;;;;;;;59.72;53.72;;;;;;;10.47;100.00;100603.59;4931076;29;20031;-88
2022/01/02 12:02:13;;;;;;;60.33;53.83;;;;;;;10.39;100.00;100594.41;4929690;29;20039;-88
2022/01/02 12:07:34;;;;;;;95.35;60.53;;;;;;;10.53;100.00;100592.28;4949662;29;20039;-86
2022/01/02 12:10:21;;;;;;;65.35;54.67;;;;;;;10.50;100.00;100602.66;4933598;29;20019;-87
2022/01/02 12:12:55;;;;;;;61.75;54.97;;;;;;;10.53;100.00;100594.88;4945963;29;20035;-84
2022/01/02 12:15:21;;;;;;;61.08;54.42;;;;;;;10.48;100.00;100573.56;4939008;29;20098;-87
2022/01/02 12:18:06;;;;;;;64.28;55.22;;;;;;;10.59;100.00;100581.78;4954072;29;20023;-86
2022/01/02 12:21:02;;;;;;;68.85;56.10;;;;;;;10.60;100.00;100580.06;4936169;29;20615;-89
2022/01/02 12:23:34;;;;;;;60.38;53.80;;;;;;;10.66;100.00;100562.72;4930466;29;20059;-92
2022/01/02 12:26:25;;;;;;;59.70;52.88;;;;;;;10.40;100.00;100503.53;4939639;29;20027;-89
2022/01/02 12:29:05;;;;;;;59.85;53.47;;;;;;;10.66;100.00;100544.72;4956333;28;20042;-87
2022/01/02 12:31:42;;;;;;;60.22;53.83;;;;;;;10.69;100.00;100541.22;4946391;29;20020;-89
2022/01/02 12:34:07;;;;;;;60.88;54.22;;;;;;;10.71;100.00;100542.81;4926462;29;20028;-89
2022/01/02 12:36:33;;;;;;;61.67;53.97;;;;;;;10.74;100.00;100525.59;4943553;29;20012;-89
2022/01/02 12:39:12;;;;;;;60.33;53.83;;;;;;;10.71;100.00;100509.38;4929053;29;20051;-87
2022/01/02 12:41:44;;;;;;;60.80;53.58;;;;;;;10.86;100.00;100522.63;4928951;29;20047;-86
2022/01/02 12:44:16;;;;;;;65.18;54.03;;;;;;;10.80;100.00;100504.81;4928732;29;20016;-86
2022/01/02 12:46:56;;;;;;;60.67;54.17;;;;;;;10.92;100.00;100512.13;4928604;29;20054;-87
2022/01/02 12:49:28;;;;;;;59.30;53.30;;;;;;;10.88;100.00;100519.13;4926653;29;20015;-87
2022/01/02 12:52:01;;;;;;;61.50;53.97;;;;;;;10.86;100.00;100520.06;4926204;29;20051;-86
2022/01/02 12:54:29;;;;;;;60.30;54.08;;;;;;;10.68;100.00;100483.75;4928375;29;20043;-88
2022/01/02 12:56:59;;;;;;;59.70;53.72;;;;;;;10.88;100.00;100507.97;4920298;29;20087;-85
2022/01/02 12:59:29;;;;;;;60.13;53.63;;;;;;;10.91;98.75;100509.59;4939785;29;20019;-87
2022/01/02 13:02:14;;;;;;;59.63;53.38;;;;;;;10.91;98.75;100515.59;4951755;29;20024;-87
2022/01/02 13:04:57;;;;;;;58.83;53.08;;;;;;;10.93;99.54;100503.53;4922266;29;20062;-87
2022/01/02 13:07:24;;;;;;;59.92;53.83;;;;;;;10.89;98.39;100501.94;4923061;29;20082;-86
2022/01/02 13:09:51;;;;;;;59.67;53.22;;;;;;;10.90;98.99;100508.78;4929170;29;20019;-87
2022/01/02 13:12:18;;;;;;;58.60;53.10;;;;;;;10.93;98.73;100498.38;4938102;29;20011;-86
2022/01/02 13:14:47;;;;;;;;;;;;;;;10.96;98.51;100503.44;4927269;29;20047;-86
2022/01/02 13:17:15;;;;;;;60.65;54.33;;;;;;;10.94;98.24;100494.06;4958270;29;19918;-88
2022/01/02 13:19:46;;;;;;;60.72;54.40;;;;;;;10.97;97.86;100499.94;4944112;29;20007;-87
2022/01/02 13:22:17;;;;;;;60.13;54.17;;;;;;;10.98;97.66;100496.50;4943264;29;20012;-87
2022/01/02 13:24:45;;;;;;;63.17;55.05;;;;;;;11.00;97.01;100493.88;4930847;29;20024;-87
2022/01/02 13:27:11;;;;;;;60.75;54.20;;;;;;;10.96;97.02;100493.13;4926404;29;20019;-85
2022/01/02 13:29:36;;;;;;;59.90;53.63;;;;;;;11.07;96.83;100485.03;4941436;29;20028;-86
2022/01/02 13:32:12;;;;;;;60.47;54.07;;;;;;;11.05;95.24;100491.97;4922043;29;20047;-85
2022/01/02 13:34:38;;;;;;;59.70;53.58;;;;;;;10.97;94.96;100474.22;4945260;23;20115;-88
2022/01/02 13:37:04;;;;;;;60.07;54.00;;;;;;;11.00;94.60;100470.69;4931466;29;20046;-88
2022/01/02 13:39:48;;;;;;;61.92;55.38;;;;;;;11.11;92.74;100483.22;4918412;29;20088;-87
2022/01/02 13:42:16;;;;;;;59.03;53.13;;;;;;;11.12;93.19;100482.28;4910177;29;20081;-89
2022/01/02 13:44:50;;;;;;;61.85;54.72;;;;;;;11.13;92.08;100486.56;4901236;29;20043;-89
2022/01/02 13:47:17;;;;;;;59.30;53.10;;;;;;;10.82;91.64;100424.13;4920807;29;20058;-89
2022/01/02 13:49:52;;;;;;;65.15;54.17;;;;;;;11.06;90.89;100463.59;4904692;29;20032;-87
2022/01/02 13:52:19;;;;;;;71.47;55.58;;;;;;;10.90;89.92;100429.00;4922033;29;20028;-88
2022/01/02 13:54:46;;;;;;;;;;;;;;;11.16;90.16;100468.44;4904418;29;20039;-89
2022/01/02 13:57:17;;;;;;;59.80;53.40;;;;;;;10.94;90.72;100437.44;4907897;29;19911;-88
2022/01/02 13:59:43;;;;;;;59.78;53.55;;;;;;;10.96;90.24;100453.66;4892004;29;20039;-88
2022/01/02 14:02:10;;;;;;;62.05;55.05;;;;;;;11.11;91.38;100470.34;4923948;29;20020;-89
2022/01/02 14:04:51;;;;;;;;;;;;;;;11.13;90.63;100468.53;4908419;29;20033;-90
2022/01/02 14:07:16;;;;;;;59.38;53.17;;;;;;;11.07;90.92;100465.28;4910199;29;19915;-89
2022/01/02 14:09:50;;;;;;;59.67;53.40;;;;;;;10.89;89.95;100440.19;4910031;29;20127;-90
2022/01/02 14:12:20;;;;;;;61.25;54.60;;;;;;;10.89;90.50;100447.91;4893401;29;20028;-88
2022/01/02 14:14:51;;;;;;;60.20;54.00;;;;;;;11.09;90.32;100470.38;4910370;29;20032;-86
2022/01/02 14:17:30;;;;;;;60.95;54.45;;;;;;;10.98;90.81;100450.16;4933662;29;20055;-87
2022/01/02 14:19:56;;;;;;;59.20;53.00;;;;;;;11.01;91.46;100469.81;4914159;29;20021;-88
2022/01/02 14:22:23;;;;;;;60.13;53.53;;;;;;;10.89;92.37;100473.63;4930019;29;20060;-87
2022/01/02 14:24:49;;;;;;;58.95;53.22;;;;;;;10.88;93.00;100471.94;4917424;29;20020;-86
2022/01/02 14:27:17;;;;;;;58.40;52.50;;;;;;;10.87;93.31;100478.84;4922648;29;20029;-86
2022/01/02 14:29:42;;;;;;;60.13;53.85;;;;;;;10.67;92.71;100456.38;4921977;29;20091;-88
2022/01/02 14:32:08;;;;;;;59.27;53.20;;;;;;;10.81;93.16;100473.88;4919976;29;20028;-87
2022/01/02 14:34:34;;;;;;;59.00;52.77;;;;;;;10.82;93.08;100472.19;4917608;29;20069;-87
2022/01/02 14:37:00;;;;;;;58.70;52.80;;;;;;;10.75;91.54;100452.69;4911835;29;20020;-87
2022/01/02 14:39:25;;;;;;;58.77;53.07;;;;;;;10.83;92.05;100471.25;4928060;29;20036;-87
2022/01/02 14:41:51;;;;;;;60.23;53.93;;;;;;;10.85;90.88;100459.22;4910851;29;20047;-86
2022/01/02 14:44:17;;;;;;;58.67;52.67;;;;;;;10.81;91.31;100470.50;4910872;29;20048;-86